KBJC/BJC METAR and TAF weather

Enter ICAO airport designator
Station Type Date Time Source
KBJC METAR 2018/09/20 17:50 UTC NOAA

KBJC 201750Z 36010KT 30SM FEW130 BKN250 24/12 A2994


Station Type Date Time Source
KBJC Decoded METAR 2018/09/20 17:50 UTC NOAA

Broomfield / Jeffco, CO, United States (KBJC) 39-55N 105-07W
Sep 20, 2018 - 01:50 PM EDT / 2018.09.20 1750 UTC
Wind: from the N (360 degrees) at 12 MPH (10 KT):0
Visibility: 30 mile(s):0
Sky conditions: mostly cloudy
Temperature: 75 F (24 C)
Dew Point: 53 F (12 C)
Relative Humidity: 46%
Pressure (altimeter): 29.94 in. Hg (1013 hPa)
ob: KBJC 201750Z 36010KT 30SM FEW130 BKN250 24/12 A2994
cycle: 18

Station Type Date Time Source
KBJC TAF 2018/09/20 18:45 UTC NOAA

TAF KBJC 201743Z 2018/2118 29010KT P6SM SCT080 BKN140
FM202000 30014G22KT P6SM FEW080 FEW150
FM210200 34012KT P6SM FEW200
FM211000 VRB06KT P6SM SCT015
FM211500 32008KT P6SM SCT025 SCT120


Example: see airport list